createdAt,value
2023-05-20T00:00:47.296Z,492.00
2023-05-20T00:01:47.188Z,492.00
2023-05-20T00:02:47.295Z,490.00
2023-05-20T00:03:47.438Z,492.00
2023-05-20T00:04:47.487Z,492.00
2023-05-20T00:05:47.349Z,492.00
2023-05-20T00:06:47.407Z,491.00
2023-05-20T00:07:47.455Z,490.00
2023-05-20T00:08:47.489Z,490.00
2023-05-20T00:09:47.534Z,489.00
2023-05-20T00:10:47.895Z,494.00
2023-05-20T00:11:47.660Z,495.00
2023-05-20T00:12:47.691Z,497.00
2023-05-20T00:13:47.739Z,496.00
2023-05-20T00:14:47.729Z,493.00
2023-05-20T00:15:47.929Z,494.00
2023-05-20T00:16:47.816Z,491.00
2023-05-20T00:17:47.878Z,491.00
2023-05-20T00:18:47.897Z,491.00
2023-05-20T00:19:47.885Z,490.00
2023-05-20T00:20:47.906Z,490.00
2023-05-20T00:21:48.108Z,492.00
2023-05-20T00:22:47.945Z,494.00
2023-05-20T00:23:47.965Z,491.00
2023-05-20T00:24:47.976Z,489.00
2023-05-20T00:25:47.968Z,492.00
2023-05-20T00:26:48.190Z,493.00
2023-05-20T00:27:47.983Z,493.00
2023-05-20T00:28:47.986Z,493.00
2023-05-20T00:29:48.108Z,494.00
2023-05-20T00:30:47.995Z,492.00
2023-05-20T00:31:48.007Z,490.00
2023-05-20T00:32:48.084Z,490.00
2023-05-20T00:33:47.991Z,491.00
2023-05-20T00:34:48.007Z,493.00
2023-05-20T00:35:48.032Z,496.00
2023-05-20T00:36:48.113Z,498.00
2023-05-20T00:37:48.008Z,496.00
2023-05-20T00:38:48.020Z,497.00
2023-05-20T00:39:48.053Z,496.00
2023-05-20T00:40:48.010Z,495.00
2023-05-20T00:41:48.010Z,492.00
2023-05-20T00:42:48.132Z,490.00
2023-05-20T00:43:48.018Z,490.00
2023-05-20T00:44:48.008Z,490.00
2023-05-20T00:45:48.143Z,491.00
2023-05-20T00:46:48.003Z,492.00
2023-05-20T00:47:48.036Z,492.00
2023-05-20T00:48:48.008Z,492.00
2023-05-20T00:49:50.235Z,489.00
2023-05-20T00:50:48.118Z,489.00
2023-05-20T00:51:47.962Z,490.00
2023-05-20T00:52:47.956Z,489.00
2023-05-20T00:53:47.930Z,490.00
2023-05-20T00:54:47.932Z,489.00
2023-05-20T00:55:47.892Z,490.00
2023-05-20T00:56:47.877Z,490.00
2023-05-20T00:57:47.995Z,491.00
2023-05-20T00:58:47.838Z,492.00
2023-05-20T00:59:47.848Z,492.00
2023-05-20T01:00:47.800Z,492.00
2023-05-20T01:01:47.902Z,489.00
2023-05-20T01:02:47.872Z,487.00
2023-05-20T01:03:47.732Z,487.00
2023-05-20T01:04:47.893Z,487.00
2023-05-20T01:05:47.704Z,488.00
2023-05-20T01:06:47.728Z,491.00
2023-05-20T01:07:47.673Z,491.00
2023-05-20T01:08:47.672Z,492.00
2023-05-20T01:09:47.626Z,493.00
2023-05-20T01:10:47.603Z,493.00
2023-05-20T01:11:47.602Z,491.00
2023-05-20T01:12:47.571Z,488.00
2023-05-20T01:13:47.607Z,492.00
2023-05-20T01:14:47.535Z,492.00
2023-05-20T01:15:48.525Z,492.00
2023-05-20T01:16:47.545Z,490.00
2023-05-20T01:17:47.592Z,490.00
2023-05-20T01:18:47.479Z,491.00
2023-05-20T01:19:47.482Z,490.00
2023-05-20T01:20:47.423Z,491.00
2023-05-20T01:21:47.421Z,492.00
2023-05-20T01:22:47.417Z,491.00
2023-05-20T01:23:47.382Z,492.00
2023-05-20T01:24:47.373Z,491.00
2023-05-20T01:25:47.371Z,492.00
2023-05-20T01:26:47.351Z,492.00
2023-05-20T01:27:47.510Z,493.00
2023-05-20T01:28:47.314Z,494.00
2023-05-20T01:29:47.309Z,493.00
2023-05-20T01:30:47.335Z,494.00
2023-05-20T01:31:47.377Z,493.00
2023-05-20T01:32:47.435Z,491.00
2023-05-20T01:33:47.285Z,492.00
2023-05-20T01:34:47.242Z,490.00
2023-05-20T01:35:47.260Z,489.00
2023-05-20T01:36:47.222Z,487.00
2023-05-20T01:37:47.215Z,486.00
2023-05-20T01:38:47.418Z,484.00
2023-05-20T01:39:47.215Z,482.00
2023-05-20T01:40:47.193Z,478.00
2023-05-20T01:41:47.179Z,479.00
2023-05-20T01:42:47.176Z,480.00
2023-05-20T01:43:47.162Z,479.00
2023-05-20T01:44:47.168Z,480.00
2023-05-20T01:45:47.274Z,482.00
2023-05-20T01:46:47.173Z,482.00
2023-05-20T01:47:47.176Z,484.00
2023-05-20T01:48:47.159Z,486.00
2023-05-20T01:49:47.181Z,482.00
2023-05-20T01:50:47.184Z,483.00
2023-05-20T01:51:47.216Z,483.00
2023-05-20T01:52:47.220Z,484.00
2023-05-20T01:53:47.284Z,482.00
2023-05-20T01:54:47.227Z,483.00
2023-05-20T01:55:47.234Z,479.00
2023-05-20T01:56:47.199Z,480.00
2023-05-20T01:57:47.209Z,483.00
2023-05-20T01:58:47.197Z,483.00
2023-05-20T01:59:47.185Z,485.00
2023-05-20T02:00:47.308Z,483.00
2023-05-20T02:01:47.201Z,483.00
2023-05-20T02:02:47.233Z,483.00
2023-05-20T02:03:47.139Z,483.00
2023-05-20T02:04:47.119Z,482.00
2023-05-20T02:05:47.171Z,480.00
2023-05-20T02:06:47.104Z,481.00
2023-05-20T02:07:47.233Z,482.00
2023-05-20T02:08:47.108Z,483.00
2023-05-20T02:09:47.149Z,483.00
2023-05-20T02:10:47.104Z,483.00
2023-05-20T02:11:47.116Z,481.00
2023-05-20T02:12:47.077Z,479.00
2023-05-20T02:13:47.075Z,479.00
2023-05-20T02:14:47.070Z,480.00
2023-05-20T02:15:47.177Z,481.00
2023-05-20T02:16:47.097Z,481.00
2023-05-20T02:17:47.117Z,483.00
2023-05-20T02:18:47.083Z,483.00
2023-05-20T02:19:47.030Z,479.00
2023-05-20T02:20:47.006Z,478.00
2023-05-20T02:21:47.200Z,479.00
2023-05-20T02:22:47.003Z,479.00
2023-05-20T02:23:46.986Z,479.00
2023-05-20T02:24:47.022Z,482.00
2023-05-20T02:25:46.992Z,482.00
2023-05-20T02:26:46.963Z,482.00
2023-05-20T02:27:47.077Z,482.00
2023-05-20T02:28:46.999Z,481.00
2023-05-20T02:29:46.972Z,480.00
2023-05-20T02:30:46.997Z,483.00
2023-05-20T02:31:47.025Z,481.00
2023-05-20T02:32:47.095Z,480.00
2023-05-20T02:33:47.248Z,479.00
2023-05-20T02:34:47.091Z,479.00
2023-05-20T02:35:47.174Z,477.00
2023-05-20T02:36:47.108Z,478.00
2023-05-20T02:37:47.172Z,477.00
2023-05-20T02:38:47.200Z,477.00
2023-05-20T02:39:47.357Z,475.00
2023-05-20T02:40:47.266Z,479.00
2023-05-20T02:41:47.300Z,478.00
2023-05-20T02:42:47.332Z,478.00
2023-05-20T02:43:47.370Z,477.00
2023-05-20T02:44:47.412Z,477.00
2023-05-20T02:45:47.707Z,476.00
2023-05-20T02:46:47.480Z,476.00
2023-05-20T02:47:47.567Z,475.00
2023-05-20T02:48:47.563Z,475.00
2023-05-20T02:49:47.572Z,477.00
2023-05-20T02:50:47.593Z,477.00
2023-05-20T02:51:47.787Z,480.00
2023-05-20T02:52:47.695Z,480.00
2023-05-20T02:53:47.710Z,482.00
2023-05-20T02:54:47.691Z,482.00
2023-05-20T02:55:47.726Z,482.00
2023-05-20T02:56:47.698Z,481.00
2023-05-20T02:57:47.738Z,482.00
2023-05-20T02:58:47.825Z,485.00
2023-05-20T02:59:47.789Z,488.00
2023-05-20T03:00:47.840Z,486.00
2023-05-20T03:01:47.907Z,488.00
2023-05-20T03:02:48.015Z,485.00
2023-05-20T03:03:47.955Z,481.00
2023-05-20T03:04:48.075Z,479.00
2023-05-20T03:05:48.058Z,479.00
2023-05-20T03:06:48.104Z,478.00
2023-05-20T03:07:48.159Z,481.00
2023-05-20T03:08:48.222Z,482.00
2023-05-20T03:09:48.282Z,481.00
2023-05-20T03:10:48.290Z,478.00
2023-05-20T03:11:48.416Z,475.00
2023-05-20T03:12:48.408Z,473.00
2023-05-20T03:13:48.479Z,474.00
2023-05-20T03:14:48.500Z,476.00
2023-05-20T03:15:48.600Z,478.00
2023-05-20T03:16:48.610Z,478.00
2023-05-20T03:17:48.703Z,479.00
2023-05-20T03:18:48.744Z,480.00
2023-05-20T03:19:48.729Z,479.00
2023-05-20T03:20:48.797Z,483.00
2023-05-20T03:21:48.811Z,482.00
2023-05-20T03:22:48.838Z,480.00
2023-05-20T03:23:48.890Z,478.00
2023-05-20T03:24:48.970Z,479.00
2023-05-20T03:25:49.913Z,479.00
2023-05-20T03:26:49.048Z,475.00
2023-05-20T03:27:49.072Z,478.00
2023-05-20T03:28:49.123Z,478.00
2023-05-20T03:29:49.183Z,480.00
2023-05-20T03:30:49.436Z,480.00
2023-05-20T03:31:49.392Z,480.00
2023-05-20T03:32:49.303Z,479.00
2023-05-20T03:33:49.343Z,479.00
2023-05-20T03:34:49.356Z,481.00
2023-05-20T03:35:49.378Z,481.00
2023-05-20T03:36:49.430Z,480.00
2023-05-20T03:37:49.459Z,479.00
2023-05-20T03:38:49.638Z,478.00
2023-05-20T03:39:49.590Z,477.00
2023-05-20T03:40:49.633Z,475.00
2023-05-20T03:41:49.733Z,477.00
2023-05-20T03:42:49.738Z,478.00
2023-05-20T03:43:49.814Z,481.00
2023-05-20T03:44:49.831Z,479.00
2023-05-20T03:45:49.884Z,479.00
2023-05-20T03:46:49.995Z,481.00
2023-05-20T03:47:50.022Z,478.00
2023-05-20T03:48:49.996Z,479.00
2023-05-20T03:49:50.053Z,480.00
2023-05-20T03:50:50.107Z,479.00
2023-05-20T03:51:50.108Z,480.00
2023-05-20T03:52:50.145Z,479.00
2023-05-20T03:53:50.198Z,482.00
2023-05-20T03:54:50.273Z,480.00
2023-05-20T03:55:50.322Z,481.00
2023-05-20T03:56:50.355Z,482.00
2023-05-20T03:57:50.437Z,483.00
2023-05-20T03:58:50.432Z,482.00
2023-05-20T03:59:50.414Z,482.00
2023-05-20T04:00:50.438Z,483.00
2023-05-20T04:01:50.568Z,482.00
2023-05-20T04:02:50.572Z,481.00
2023-05-20T04:03:50.752Z,479.00
2023-05-20T04:04:50.578Z,479.00
2023-05-20T04:05:50.655Z,480.00
2023-05-20T04:06:50.676Z,481.00
2023-05-20T04:07:50.804Z,484.00
2023-05-20T04:08:50.787Z,483.00
2023-05-20T04:09:50.841Z,480.00
2023-05-20T04:10:50.893Z,476.00
2023-05-20T04:11:50.942Z,477.00
2023-05-20T04:12:50.955Z,477.00
2023-05-20T04:13:51.082Z,478.00
2023-05-20T04:14:51.055Z,480.00
2023-05-20T04:15:51.102Z,481.00
2023-05-20T04:16:51.175Z,481.00
2023-05-20T04:17:51.199Z,484.00
2023-05-20T04:18:51.323Z,486.00
2023-05-20T04:19:51.254Z,487.00
2023-05-20T04:20:51.293Z,487.00
2023-05-20T04:21:51.329Z,489.00
2023-05-20T04:22:51.364Z,491.00
2023-05-20T04:23:51.385Z,491.00
2023-05-20T04:24:51.437Z,493.00
2023-05-20T04:25:51.460Z,496.00
2023-05-20T04:26:51.515Z,489.00
2023-05-20T04:27:51.514Z,486.00
2023-05-20T04:28:51.566Z,485.00
2023-05-20T04:29:51.629Z,487.00
2023-05-20T04:30:51.630Z,487.00
2023-05-20T04:31:51.709Z,488.00
2023-05-20T04:32:51.694Z,489.00
2023-05-20T04:33:51.658Z,487.00
2023-05-20T04:34:51.666Z,485.00
2023-05-20T04:35:51.697Z,484.00
2023-05-20T04:36:51.689Z,482.00
2023-05-20T04:37:51.706Z,482.00
2023-05-20T04:38:51.741Z,483.00
2023-05-20T04:39:51.772Z,484.00
2023-05-20T04:40:51.796Z,481.00
2023-05-20T04:41:51.853Z,482.00
2023-05-20T04:42:51.882Z,485.00
2023-05-20T04:43:51.930Z,483.00
2023-05-20T04:44:51.976Z,483.00
2023-05-20T04:45:52.059Z,485.00
2023-05-20T04:46:52.091Z,484.00
2023-05-20T04:47:52.196Z,483.00
2023-05-20T04:48:52.157Z,484.00
2023-05-20T04:49:52.196Z,485.00
2023-05-20T04:50:52.251Z,487.00
2023-05-20T04:51:52.285Z,487.00
2023-05-20T04:52:52.340Z,486.00
2023-05-20T04:53:52.431Z,487.00
2023-05-20T04:54:52.505Z,487.00
2023-05-20T04:55:52.546Z,488.00
2023-05-20T04:56:52.527Z,488.00
2023-05-20T04:57:52.628Z,488.00
2023-05-20T04:58:52.633Z,487.00
2023-05-20T04:59:52.679Z,489.00
2023-05-20T05:00:52.708Z,491.00
2023-05-20T05:01:52.949Z,492.00
2023-05-20T05:02:52.904Z,492.00
2023-05-20T05:03:52.880Z,490.00
2023-05-20T05:04:52.941Z,491.00
2023-05-20T05:05:52.958Z,489.00
2023-05-20T05:06:53.022Z,489.00
2023-05-20T05:07:53.061Z,487.00
2023-05-20T05:08:53.114Z,489.00
2023-05-20T05:09:53.162Z,489.00
2023-05-20T05:10:53.237Z,487.00
2023-05-20T05:11:53.304Z,487.00
2023-05-20T05:12:53.310Z,489.00
2023-05-20T05:13:53.393Z,490.00
2023-05-20T05:14:53.415Z,488.00
2023-05-20T05:15:53.508Z,486.00
2023-05-20T05:16:55.578Z,488.00
2023-05-20T05:17:53.580Z,489.00
2023-05-20T05:18:53.540Z,489.00
2023-05-20T05:19:53.503Z,487.00
2023-05-20T05:20:53.449Z,486.00
2023-05-20T05:21:53.435Z,486.00
2023-05-20T05:22:53.418Z,486.00
2023-05-20T05:23:53.393Z,487.00
2023-05-20T05:24:53.376Z,488.00
2023-05-20T05:25:53.427Z,487.00
2023-05-20T05:26:53.336Z,488.00
2023-05-20T05:27:53.322Z,487.00
2023-05-20T05:28:53.307Z,486.00
2023-05-20T05:29:53.315Z,487.00
2023-05-20T05:30:53.277Z,487.00
2023-05-20T05:31:53.292Z,489.00
2023-05-20T05:32:53.366Z,487.00
2023-05-20T05:33:53.261Z,488.00
2023-05-20T05:34:53.238Z,487.00
2023-05-20T05:35:53.210Z,488.00
2023-05-20T05:36:53.215Z,487.00
2023-05-20T05:37:53.190Z,489.00
2023-05-20T05:38:53.165Z,488.00
2023-05-20T05:39:53.153Z,485.00
2023-05-20T05:40:53.200Z,484.00
2023-05-20T05:41:53.220Z,483.00
2023-05-20T05:42:53.259Z,481.00
2023-05-20T05:43:53.313Z,482.00
2023-05-20T05:44:53.428Z,481.00
2023-05-20T05:45:53.404Z,482.00
2023-05-20T05:46:53.501Z,484.00
2023-05-20T05:47:53.512Z,485.00
2023-05-20T05:48:53.536Z,485.00
2023-05-20T05:49:53.608Z,484.00
2023-05-20T05:50:53.629Z,483.00
2023-05-20T05:51:53.678Z,482.00
2023-05-20T05:52:53.711Z,483.00
2023-05-20T05:53:53.765Z,485.00
2023-05-20T05:54:53.811Z,487.00
2023-05-20T05:55:53.865Z,487.00
2023-05-20T05:56:53.909Z,488.00
2023-05-20T05:57:53.955Z,488.00
2023-05-20T05:58:54.005Z,488.00
2023-05-20T05:59:54.057Z,485.00
2023-05-20T06:00:54.098Z,484.00
2023-05-20T06:01:54.162Z,486.00
2023-05-20T06:02:54.285Z,485.00
2023-05-20T06:03:54.346Z,485.00
2023-05-20T06:04:54.249Z,483.00
2023-05-20T06:05:54.311Z,484.00
2023-05-20T06:06:54.373Z,486.00
2023-05-20T06:07:54.368Z,487.00
2023-05-20T06:08:54.418Z,487.00
2023-05-20T06:09:54.449Z,487.00
2023-05-20T06:10:54.490Z,487.00
2023-05-20T06:11:54.536Z,487.00
2023-05-20T06:12:54.600Z,485.00
2023-05-20T06:13:54.635Z,487.00
2023-05-20T06:14:54.710Z,488.00
2023-05-20T06:15:54.796Z,488.00
2023-05-20T06:16:54.793Z,488.00
2023-05-20T06:17:54.917Z,489.00
2023-05-20T06:18:54.845Z,488.00
2023-05-20T06:19:54.895Z,485.00
2023-05-20T06:20:54.904Z,481.00
2023-05-20T06:21:55.004Z,481.00
2023-05-20T06:22:54.973Z,481.00
2023-05-20T06:23:55.021Z,481.00
2023-05-20T06:24:55.061Z,482.00
2023-05-20T06:25:55.137Z,481.00
2023-05-20T06:26:55.186Z,485.00
2023-05-20T06:27:55.169Z,486.00
2023-05-20T06:28:55.224Z,485.00
2023-05-20T06:29:55.243Z,483.00
2023-05-20T06:30:55.316Z,482.00
2023-05-20T06:31:55.312Z,482.00
2023-05-20T06:32:55.437Z,485.00
2023-05-20T06:33:55.413Z,486.00
2023-05-20T06:34:55.443Z,485.00
2023-05-20T06:35:55.537Z,484.00
2023-05-20T06:36:55.565Z,485.00
2023-05-20T06:37:55.655Z,487.00
2023-05-20T06:38:55.646Z,488.00
2023-05-20T06:39:55.663Z,488.00
2023-05-20T06:40:55.736Z,490.00
2023-05-20T06:41:55.794Z,488.00
2023-05-20T06:42:55.796Z,486.00
2023-05-20T06:43:55.848Z,487.00
2023-05-20T06:44:55.907Z,490.00
2023-05-20T06:45:55.966Z,490.00
2023-05-20T06:46:56.123Z,491.00
2023-05-20T06:47:56.040Z,489.00
2023-05-20T06:48:56.059Z,486.00
2023-05-20T06:49:56.110Z,486.00
2023-05-20T06:50:56.143Z,487.00
2023-05-20T06:51:56.188Z,488.00
2023-05-20T06:52:56.253Z,488.00
2023-05-20T06:53:56.311Z,487.00
2023-05-20T06:54:56.310Z,487.00
2023-05-20T06:55:56.350Z,485.00
2023-05-20T06:56:56.399Z,486.00
2023-05-20T06:57:56.467Z,485.00
2023-05-20T06:58:56.484Z,485.00
2023-05-20T06:59:56.525Z,484.00
2023-05-20T07:00:56.568Z,485.00
2023-05-20T07:01:56.615Z,483.00
2023-05-20T07:02:56.691Z,483.00
2023-05-20T07:03:56.901Z,482.00
2023-05-20T07:04:56.759Z,484.00
2023-05-20T07:05:56.802Z,484.00
2023-05-20T07:06:56.859Z,484.00
2023-05-20T07:07:56.990Z,486.00
2023-05-20T07:08:56.935Z,488.00
2023-05-20T07:09:57.007Z,487.00
2023-05-20T07:10:57.044Z,487.00
2023-05-20T07:11:57.076Z,485.00
2023-05-20T07:12:57.123Z,482.00
2023-05-20T07:13:57.198Z,478.00
2023-05-20T07:14:57.250Z,477.00
2023-05-20T07:15:57.289Z,478.00
2023-05-20T07:16:57.311Z,479.00
2023-05-20T07:17:57.400Z,481.00
2023-05-20T07:18:57.409Z,483.00
2023-05-20T07:19:57.448Z,485.00
2023-05-20T07:20:57.500Z,487.00
2023-05-20T07:21:57.544Z,484.00
2023-05-20T07:22:57.582Z,484.00
2023-05-20T07:23:57.629Z,485.00
2023-05-20T07:24:57.690Z,482.00
2023-05-20T07:25:57.746Z,483.00
2023-05-20T07:26:57.755Z,481.00
2023-05-20T07:27:57.901Z,481.00
2023-05-20T07:28:57.861Z,480.00
2023-05-20T07:29:57.860Z,480.00
2023-05-20T07:30:57.941Z,480.00
2023-05-20T07:31:58.004Z,481.00
2023-05-20T07:32:58.072Z,483.00
2023-05-20T07:33:58.041Z,485.00
2023-05-20T07:34:58.088Z,485.00
2023-05-20T07:35:58.153Z,486.00
2023-05-20T07:36:58.156Z,485.00
2023-05-20T07:37:58.235Z,483.00
2023-05-20T07:39:03.487Z,487.00
2023-05-20T07:39:58.227Z,486.00
2023-05-20T07:40:58.189Z,487.00
2023-05-20T07:41:58.206Z,485.00
2023-05-20T07:42:58.176Z,487.00
2023-05-20T07:43:58.189Z,488.00
2023-05-20T07:44:58.984Z,485.00
2023-05-20T07:45:58.140Z,485.00
2023-05-20T07:46:58.068Z,489.00
2023-05-20T07:47:58.125Z,493.00
2023-05-20T07:48:58.025Z,496.00
2023-05-20T07:49:58.035Z,494.00
2023-05-20T07:50:57.983Z,494.00
2023-05-20T07:51:57.971Z,494.00
2023-05-20T07:52:57.942Z,493.00
2023-05-20T07:53:57.959Z,494.00
2023-05-20T07:54:57.924Z,494.00
2023-05-20T07:55:57.958Z,493.00
2023-05-20T07:56:57.996Z,490.00
2023-05-20T07:57:58.062Z,491.00
2023-05-20T07:58:58.083Z,490.00
2023-05-20T07:59:58.131Z,488.00
2023-05-20T08:00:58.206Z,485.00
2023-05-20T08:01:58.299Z,485.00
2023-05-20T08:02:58.407Z,486.00
2023-05-20T08:03:58.455Z,486.00
2023-05-20T08:04:58.340Z,487.00
2023-05-20T08:05:58.385Z,487.00
2023-05-20T08:06:58.422Z,487.00
2023-05-20T08:07:58.462Z,488.00
2023-05-20T08:08:58.555Z,487.00
2023-05-20T08:09:58.567Z,486.00
2023-05-20T08:10:58.629Z,489.00
2023-05-20T08:11:58.628Z,488.00
2023-05-20T08:12:58.664Z,489.00
2023-05-20T08:13:58.738Z,489.00
2023-05-20T08:14:58.758Z,489.00
2023-05-20T08:15:58.802Z,489.00
2023-05-20T08:16:58.820Z,490.00
2023-05-20T08:17:59.596Z,491.00
2023-05-20T08:18:58.913Z,491.00
2023-05-20T08:19:58.907Z,489.00
2023-05-20T08:20:58.974Z,489.00
2023-05-20T08:21:58.979Z,491.00
2023-05-20T08:22:59.017Z,492.00
2023-05-20T08:23:59.117Z,494.00
2023-05-20T08:24:59.085Z,492.00
2023-05-20T08:25:59.123Z,491.00
2023-05-20T08:26:59.188Z,490.00
2023-05-20T08:27:59.197Z,493.00
2023-05-20T08:28:59.254Z,492.00
2023-05-20T08:30:00.825Z,493.00
2023-05-20T08:30:59.257Z,492.00
2023-05-20T08:31:59.209Z,492.00
2023-05-20T08:32:59.181Z,490.00
2023-05-20T08:33:59.220Z,488.00
2023-05-20T08:34:59.187Z,486.00
2023-05-20T08:35:59.142Z,486.00
2023-05-20T08:36:59.094Z,486.00
2023-05-20T08:37:59.076Z,489.00
2023-05-20T08:38:59.065Z,491.00
2023-05-20T08:39:59.026Z,491.00
2023-05-20T08:40:59.019Z,490.00
2023-05-20T08:41:58.983Z,490.00
2023-05-20T08:42:59.160Z,489.00
2023-05-20T08:43:58.946Z,487.00
2023-05-20T08:44:58.933Z,484.00
2023-05-20T08:45:58.955Z,483.00
2023-05-20T08:46:58.915Z,484.00
2023-05-20T08:47:58.864Z,486.00
2023-05-20T08:48:58.833Z,488.00
2023-05-20T08:49:58.835Z,487.00
2023-05-20T08:50:58.787Z,488.00
2023-05-20T08:51:58.770Z,488.00
2023-05-20T08:52:58.768Z,487.00
2023-05-20T08:53:58.728Z,486.00
2023-05-20T08:54:58.716Z,484.00
2023-05-20T08:56:01.476Z,484.00
2023-05-20T08:56:58.664Z,485.00
2023-05-20T08:57:58.659Z,487.00
2023-05-20T08:58:58.647Z,485.00
2023-05-20T08:59:58.649Z,485.00
2023-05-20T09:00:58.669Z,483.00
2023-05-20T09:01:58.660Z,483.00
2023-05-20T09:03:00.893Z,484.00
2023-05-20T09:03:58.557Z,483.00
2023-05-20T09:04:58.567Z,482.00
2023-05-20T09:05:58.521Z,483.00
2023-05-20T09:06:58.518Z,485.00
2023-05-20T09:07:58.466Z,484.00
2023-05-20T09:08:58.468Z,485.00
2023-05-20T09:09:58.467Z,485.00
2023-05-20T09:10:58.439Z,485.00
2023-05-20T09:11:58.438Z,484.00
2023-05-20T09:12:58.384Z,485.00
2023-05-20T09:13:58.392Z,483.00
2023-05-20T09:14:58.350Z,484.00
2023-05-20T09:15:58.375Z,484.00
2023-05-20T09:16:58.301Z,484.00
2023-05-20T09:17:58.435Z,485.00
2023-05-20T09:18:58.294Z,486.00
2023-05-20T09:19:58.232Z,485.00
2023-05-20T09:20:58.227Z,486.00
2023-05-20T09:21:58.169Z,483.00
2023-05-20T09:22:58.150Z,481.00
2023-05-20T09:23:58.131Z,479.00
2023-05-20T09:24:58.108Z,480.00
2023-05-20T09:25:58.092Z,480.00
2023-05-20T09:26:58.080Z,480.00
2023-05-20T09:27:58.078Z,480.00
2023-05-20T09:28:58.085Z,478.00
2023-05-20T09:29:58.022Z,478.00
2023-05-20T09:30:58.019Z,478.00
2023-05-20T09:31:58.087Z,477.00
2023-05-20T09:32:58.041Z,477.00
2023-05-20T09:33:57.978Z,480.00
2023-05-20T09:34:57.905Z,482.00
2023-05-20T09:35:57.880Z,484.00
2023-05-20T09:36:57.898Z,485.00
2023-05-20T09:37:57.921Z,483.00
2023-05-20T09:38:57.961Z,481.00
2023-05-20T09:39:57.981Z,481.00
2023-05-20T09:40:57.994Z,480.00
2023-05-20T09:41:58.012Z,481.00
2023-05-20T09:42:58.042Z,482.00
2023-05-20T09:43:58.089Z,481.00
2023-05-20T09:44:58.107Z,483.00
2023-05-20T09:45:58.132Z,481.00
2023-05-20T09:46:58.177Z,482.00
2023-05-20T09:47:58.378Z,483.00
2023-05-20T09:48:58.217Z,483.00
2023-05-20T09:49:58.243Z,483.00
2023-05-20T09:50:58.257Z,482.00
2023-05-20T09:51:58.257Z,483.00
2023-05-20T09:52:58.288Z,486.00
2023-05-20T09:53:58.314Z,485.00
2023-05-20T09:54:58.329Z,486.00
2023-05-20T09:55:58.351Z,486.00
2023-05-20T09:56:58.453Z,484.00
2023-05-20T09:57:58.408Z,482.00
2023-05-20T09:58:58.474Z,482.00
2023-05-20T09:59:58.435Z,482.00
2023-05-20T10:00:58.520Z,481.00
2023-05-20T10:01:58.637Z,480.00
2023-05-20T10:02:58.657Z,479.00
2023-05-20T10:03:58.600Z,478.00
2023-05-20T10:04:58.622Z,479.00
2023-05-20T10:05:58.642Z,478.00
2023-05-20T10:06:58.630Z,479.00
2023-05-20T10:07:58.704Z,481.00
2023-05-20T10:08:58.791Z,482.00
2023-05-20T10:09:58.732Z,481.00
2023-05-20T10:10:58.809Z,481.00
2023-05-20T10:11:58.828Z,481.00
2023-05-20T10:12:58.808Z,481.00
2023-05-20T10:13:58.865Z,482.00
2023-05-20T10:14:58.915Z,480.00
2023-05-20T10:15:58.904Z,481.00
2023-05-20T10:16:58.928Z,481.00
2023-05-20T10:17:59.002Z,481.00
2023-05-20T10:18:59.010Z,480.00
2023-05-20T10:19:59.007Z,480.00
2023-05-20T10:20:59.041Z,479.00
2023-05-20T10:21:59.124Z,479.00
2023-05-20T10:22:59.131Z,478.00
2023-05-20T10:24:02.725Z,479.00
2023-05-20T10:24:59.107Z,480.00
2023-05-20T10:25:59.120Z,477.00
2023-05-20T10:26:59.059Z,477.00
2023-05-20T10:27:59.064Z,474.00
2023-05-20T10:28:59.097Z,473.00
2023-05-20T10:29:58.991Z,473.00
2023-05-20T10:30:58.970Z,473.00
2023-05-20T10:31:59.014Z,474.00
2023-05-20T10:32:58.927Z,472.00
2023-05-20T10:33:58.885Z,473.00
2023-05-20T10:34:58.854Z,477.00
2023-05-20T10:35:58.832Z,480.00
2023-05-20T10:36:58.836Z,481.00
2023-05-20T10:37:58.779Z,480.00
2023-05-20T10:38:58.772Z,478.00
2023-05-20T10:39:58.743Z,478.00
2023-05-20T10:40:58.742Z,477.00
2023-05-20T10:41:58.735Z,484.00
2023-05-20T10:42:58.755Z,485.00
2023-05-20T10:43:58.778Z,487.00
2023-05-20T10:44:58.775Z,485.00
2023-05-20T10:45:58.839Z,484.00
2023-05-20T10:47:20.419Z,483.00
2023-05-20T10:47:59.069Z,483.00
2023-05-20T10:48:58.845Z,485.00
2023-05-20T10:49:58.731Z,486.00
2023-05-20T10:50:58.732Z,484.00
2023-05-20T10:51:58.747Z,483.00
2023-05-20T10:52:58.658Z,480.00
2023-05-20T10:53:58.656Z,477.00
2023-05-20T10:54:58.641Z,478.00
2023-05-20T10:55:58.588Z,477.00
2023-05-20T10:56:58.562Z,476.00
2023-05-20T10:57:58.563Z,475.00
2023-05-20T10:58:58.516Z,475.00
2023-05-20T10:59:58.499Z,474.00
2023-05-20T11:00:58.514Z,474.00
2023-05-20T11:01:58.466Z,478.00
2023-05-20T11:02:58.577Z,478.00
2023-05-20T11:03:58.520Z,482.00
2023-05-20T11:04:58.448Z,482.00
2023-05-20T11:05:58.393Z,483.00
2023-05-20T11:06:58.374Z,485.00
2023-05-20T11:07:58.384Z,483.00
2023-05-20T11:08:58.372Z,486.00
2023-05-20T11:09:58.419Z,485.00
2023-05-20T11:10:58.487Z,485.00
2023-05-20T11:11:58.282Z,487.00
2023-05-20T11:12:58.298Z,485.00
2023-05-20T11:13:58.241Z,483.00
2023-05-20T11:14:58.221Z,482.00
2023-05-20T11:15:58.197Z,481.00
2023-05-20T11:16:58.284Z,481.00
2023-05-20T11:17:58.275Z,482.00
2023-05-20T11:18:58.276Z,486.00
2023-05-20T11:19:58.264Z,485.00
2023-05-20T11:20:58.317Z,486.00
2023-05-20T11:21:58.276Z,486.00
2023-05-20T11:22:58.284Z,486.00
2023-05-20T11:23:58.301Z,485.00
2023-05-20T11:24:58.328Z,481.00
2023-05-20T11:25:58.380Z,483.00
2023-05-20T11:26:58.340Z,483.00
2023-05-20T11:27:58.345Z,482.00
2023-05-20T11:29:00.130Z,483.00
2023-05-20T11:29:58.344Z,483.00
2023-05-20T11:30:58.340Z,483.00
2023-05-20T11:31:58.358Z,485.00
2023-05-20T11:32:58.386Z,487.00
2023-05-20T11:33:58.281Z,487.00
2023-05-20T11:34:58.255Z,485.00
2023-05-20T11:35:58.241Z,487.00
2023-05-20T11:36:58.252Z,489.00
2023-05-20T11:37:58.206Z,488.00
2023-05-20T11:38:58.220Z,486.00
2023-05-20T11:39:58.170Z,489.00
2023-05-20T11:40:58.515Z,487.00
2023-05-20T11:41:58.181Z,484.00
2023-05-20T11:42:58.132Z,486.00
2023-05-20T11:43:58.103Z,487.00
2023-05-20T11:44:59.385Z,489.00
2023-05-20T11:45:58.108Z,489.00
2023-05-20T11:46:58.091Z,488.00
2023-05-20T11:47:58.136Z,489.00
2023-05-20T11:48:58.016Z,488.00
2023-05-20T11:49:57.996Z,487.00
2023-05-20T11:50:59.936Z,486.00
2023-05-20T11:51:57.997Z,483.00
2023-05-20T11:52:57.957Z,483.00
2023-05-20T11:53:57.944Z,486.00
2023-05-20T11:54:57.924Z,485.00
2023-05-20T11:55:57.921Z,484.00
2023-05-20T11:56:57.891Z,484.00
2023-05-20T11:57:57.901Z,482.00
2023-05-20T11:58:57.868Z,482.00
2023-05-20T11:59:57.840Z,481.00
2023-05-20T12:01:08.972Z,480.00
2023-05-20T12:01:57.827Z,479.00
2023-05-20T12:02:57.929Z,478.00
2023-05-20T12:03:58.022Z,475.00
2023-05-20T12:04:57.863Z,475.00
2023-05-20T12:05:57.753Z,477.00
2023-05-20T12:06:57.743Z,477.00
2023-05-20T12:07:57.729Z,477.00
2023-05-20T12:08:57.722Z,478.00
2023-05-20T12:09:57.747Z,482.00
2023-05-20T12:10:57.684Z,483.00
2023-05-20T12:11:57.661Z,483.00
2023-05-20T12:12:57.645Z,484.00
2023-05-20T12:13:57.653Z,479.00
2023-05-20T12:14:57.606Z,479.00
2023-05-20T12:15:57.685Z,478.00
2023-05-20T12:16:57.582Z,477.00
2023-05-20T12:17:57.594Z,478.00
2023-05-20T12:18:57.563Z,479.00
2023-05-20T12:19:57.517Z,479.00
2023-05-20T12:20:57.507Z,480.00
2023-05-20T12:21:57.497Z,477.00
2023-05-20T12:22:57.467Z,477.00
2023-05-20T12:23:57.751Z,477.00
2023-05-20T12:24:57.435Z,478.00
2023-05-20T12:25:57.424Z,480.00
2023-05-20T12:26:57.414Z,483.00
2023-05-20T12:27:57.389Z,486.00
2023-05-20T12:28:57.629Z,485.00